createdAt,value
2022-08-11T00:01:33.727Z,2.10
2022-08-11T00:02:33.851Z,2.20
2022-08-11T00:04:27.824Z,2.10
2022-08-11T00:05:27.807Z,2.00
2022-08-11T00:07:22.121Z,2.10
2022-08-11T00:08:22.105Z,2.10
2022-08-11T00:10:16.311Z,2.00
2022-08-11T00:11:16.308Z,1.90
2022-08-11T00:13:10.440Z,2.50
2022-08-11T00:14:10.426Z,2.60
2022-08-11T00:16:04.606Z,2.00
2022-08-11T00:17:04.598Z,1.80
2022-08-11T00:18:59.533Z,2.40
2022-08-11T00:20:13.086Z,2.10
2022-08-11T00:22:05.101Z,1.90
2022-08-11T00:22:52.798Z,1.90
2022-08-11T00:24:53.903Z,1.90
2022-08-11T00:25:46.907Z,1.90
2022-08-11T00:27:41.015Z,1.90
2022-08-11T00:28:41.005Z,1.90
2022-08-11T00:30:34.728Z,2.00
2022-08-11T00:31:34.722Z,2.00
2022-08-11T00:33:41.138Z,2.30
2022-08-11T00:34:28.803Z,2.40
2022-08-11T00:36:25.618Z,2.10
2022-08-11T00:37:22.914Z,2.30
2022-08-11T00:39:16.762Z,2.20
2022-08-11T00:40:16.709Z,2.10
2022-08-11T00:42:10.844Z,2.10
2022-08-11T00:43:10.901Z,1.90
2022-08-11T00:45:04.980Z,2.10
2022-08-11T00:46:04.966Z,2.10
2022-08-11T00:48:00.254Z,2.10
2022-08-11T00:48:59.064Z,2.00
2022-08-11T00:50:53.208Z,2.30
2022-08-11T00:52:04.152Z,2.20
2022-08-11T00:53:47.294Z,1.90
2022-08-11T00:54:47.274Z,2.30
2022-08-11T00:56:41.370Z,2.30
2022-08-11T00:57:41.363Z,1.80
2022-08-11T00:59:36.045Z,1.80
2022-08-11T01:00:35.503Z,2.20
2022-08-11T01:02:30.809Z,2.30
2022-08-11T01:03:29.762Z,2.00
2022-08-11T01:05:23.993Z,1.80
2022-08-11T01:06:23.970Z,1.60
2022-08-11T01:08:19.224Z,1.90
2022-08-11T01:09:22.690Z,2.20
2022-08-11T01:11:13.304Z,2.20
2022-08-11T01:12:13.302Z,1.90
2022-08-11T01:14:07.477Z,2.20
2022-08-11T01:15:07.461Z,2.00
2022-08-11T01:17:01.659Z,2.20
2022-08-11T01:18:01.654Z,2.10
2022-08-11T01:20:45.102Z,2.00
2022-08-11T01:20:55.742Z,2.10
2022-08-11T01:22:49.903Z,2.20
2022-08-11T01:23:49.895Z,2.10
2022-08-11T01:25:57.245Z,2.10
2022-08-11T01:26:44.016Z,2.10
2022-08-11T01:28:38.328Z,2.20
2022-08-11T01:29:38.314Z,2.30
2022-08-11T01:31:32.488Z,2.20
2022-08-11T01:32:32.524Z,2.10
2022-08-11T01:34:26.720Z,1.80
2022-08-11T01:35:26.696Z,1.90
2022-08-11T01:37:21.807Z,2.00
2022-08-11T01:38:21.803Z,1.90
2022-08-11T01:40:15.942Z,2.20
2022-08-11T01:41:15.923Z,2.20
2022-08-11T01:43:10.033Z,2.20
2022-08-11T01:44:12.642Z,1.80
2022-08-11T01:46:04.276Z,2.00
2022-08-11T01:47:04.258Z,2.10
2022-08-11T01:48:58.376Z,2.30
2022-08-11T01:50:07.557Z,2.10
2022-08-11T01:51:52.550Z,2.10
2022-08-11T01:52:52.543Z,2.20
2022-08-11T01:54:46.666Z,2.20
2022-08-11T01:55:46.649Z,2.40
2022-08-11T01:57:40.732Z,1.90
2022-08-11T01:58:44.133Z,2.20
2022-08-11T02:00:35.090Z,1.90
2022-08-11T02:01:35.015Z,2.00
2022-08-11T02:03:29.096Z,1.90
2022-08-11T02:04:29.079Z,2.10
2022-08-11T02:06:23.175Z,1.90
2022-08-11T02:07:23.169Z,2.10
2022-08-11T02:09:17.317Z,2.10
2022-08-11T02:10:17.298Z,2.00
2022-08-11T02:12:11.455Z,2.20
2022-08-11T02:13:11.446Z,2.00
2022-08-11T02:15:05.795Z,1.80
2022-08-11T02:16:05.531Z,2.00
2022-08-11T02:17:59.622Z,2.10
2022-08-11T02:18:59.611Z,1.80
2022-08-11T02:20:53.759Z,1.70
2022-08-11T02:21:53.745Z,1.70
2022-08-11T02:24:06.786Z,2.20
2022-08-11T02:24:47.956Z,2.30
2022-08-11T02:26:43.163Z,2.10
2022-08-11T02:27:43.152Z,2.30
2022-08-11T02:29:37.458Z,2.60
2022-08-11T02:30:37.442Z,2.00
2022-08-11T02:32:31.710Z,2.10
2022-08-11T02:33:31.695Z,2.10
2022-08-11T02:35:26.482Z,2.20
2022-08-11T02:36:26.467Z,2.00
2022-08-11T02:38:20.617Z,2.30
2022-08-11T02:39:20.666Z,2.20
2022-08-11T02:41:14.823Z,2.20
2022-08-11T02:42:32.706Z,2.20
2022-08-11T02:44:08.904Z,2.20
2022-08-11T02:45:08.889Z,2.00
2022-08-11T02:47:03.106Z,2.40
2022-08-11T02:48:03.099Z,2.20
2022-08-11T02:50:02.771Z,2.00
2022-08-11T02:50:57.191Z,2.50
2022-08-11T02:52:52.438Z,2.20
2022-08-11T02:53:56.339Z,2.40
2022-08-11T02:55:57.115Z,2.30
2022-08-11T02:56:46.542Z,1.80
2022-08-11T02:58:40.749Z,2.20
2022-08-11T02:59:40.741Z,2.20
2022-08-11T03:01:34.891Z,2.10
2022-08-11T03:02:34.846Z,2.50
2022-08-11T03:04:37.529Z,2.60
2022-08-11T03:05:28.935Z,2.50
2022-08-11T03:07:29.130Z,2.40
2022-08-11T03:08:23.128Z,2.90
2022-08-11T03:10:17.240Z,2.30
2022-08-11T03:11:17.223Z,2.60
2022-08-11T03:13:11.308Z,2.50
2022-08-11T03:14:11.302Z,2.20
2022-08-11T03:16:05.467Z,2.40
2022-08-11T03:17:05.449Z,2.50
2022-08-11T03:18:59.597Z,2.20
2022-08-11T03:19:59.591Z,2.30
2022-08-11T03:22:03.153Z,2.40
2022-08-11T03:22:53.774Z,2.80
2022-08-11T03:24:47.889Z,2.20
2022-08-11T03:25:47.864Z,2.30
2022-08-11T03:27:42.068Z,2.00
2022-08-11T03:28:42.059Z,2.50
2022-08-11T03:30:36.176Z,1.80
2022-08-11T03:31:36.155Z,2.20
2022-08-11T03:33:31.394Z,2.80
2022-08-11T03:34:31.388Z,2.70
2022-08-11T03:36:25.476Z,2.60
2022-08-11T03:37:25.461Z,2.60
2022-08-11T03:39:19.684Z,2.20
2022-08-11T03:40:19.537Z,2.00
2022-08-11T03:42:13.652Z,2.30
2022-08-11T03:43:13.631Z,2.60
2022-08-11T03:45:07.769Z,3.30
2022-08-11T03:46:07.752Z,2.80
2022-08-11T03:48:01.905Z,2.40
2022-08-11T03:49:01.902Z,2.00
2022-08-11T03:50:56.046Z,2.90
2022-08-11T03:51:56.024Z,2.50
2022-08-11T03:53:50.166Z,2.60
2022-08-11T03:54:50.148Z,2.70
2022-08-11T03:56:44.353Z,2.30
2022-08-11T03:57:44.335Z,2.30
2022-08-11T03:59:38.519Z,2.30
2022-08-11T04:00:38.514Z,2.20
2022-08-11T04:02:32.659Z,2.40
2022-08-11T04:03:32.591Z,2.60
2022-08-11T04:05:26.720Z,2.90
2022-08-11T04:06:26.715Z,2.30
2022-08-11T04:08:20.852Z,2.40
2022-08-11T04:09:20.830Z,2.90
2022-08-11T04:11:14.932Z,2.90
2022-08-11T04:12:35.284Z,2.60
2022-08-11T04:14:09.046Z,3.00
2022-08-11T04:15:09.044Z,2.90
2022-08-11T04:17:03.215Z,2.80
2022-08-11T04:18:03.187Z,2.80
2022-08-11T04:19:58.313Z,2.70
2022-08-11T04:20:58.292Z,2.90
2022-08-11T04:22:52.574Z,3.30
2022-08-11T04:24:13.250Z,2.80
2022-08-11T04:25:57.769Z,2.60
2022-08-11T04:26:46.657Z,2.70
2022-08-11T04:28:43.119Z,3.10
2022-08-11T04:30:03.824Z,2.80
2022-08-11T04:31:51.960Z,2.80
2022-08-11T04:32:35.091Z,2.70
2022-08-11T04:34:29.192Z,2.60
2022-08-11T04:35:29.186Z,2.80
2022-08-11T04:37:23.542Z,2.70
2022-08-11T04:38:23.527Z,2.40
2022-08-11T04:40:17.616Z,2.80
2022-08-11T04:41:17.609Z,2.80
2022-08-11T04:43:11.700Z,2.50
2022-08-11T04:44:11.689Z,2.40
2022-08-11T04:46:06.794Z,2.40
2022-08-11T04:47:06.780Z,2.80
2022-08-11T04:49:00.892Z,2.40
2022-08-11T04:50:00.887Z,2.20
2022-08-11T04:51:55.094Z,2.90
2022-08-11T04:52:55.070Z,3.00
2022-08-11T04:54:49.169Z,2.30
2022-08-11T04:55:49.163Z,2.90
2022-08-11T04:57:43.279Z,2.60
2022-08-11T04:58:43.259Z,2.70
2022-08-11T05:00:37.336Z,2.80
2022-08-11T05:01:37.836Z,2.60
2022-08-11T05:03:31.442Z,2.80
2022-08-11T05:04:31.428Z,2.60
2022-08-11T05:06:25.186Z,2.80
2022-08-11T05:07:25.171Z,2.60
2022-08-11T05:09:19.276Z,2.40
2022-08-11T05:10:19.267Z,3.00
2022-08-11T05:12:13.352Z,2.50
2022-08-11T05:13:13.340Z,2.60
2022-08-11T05:15:08.438Z,3.00
2022-08-11T05:16:08.433Z,2.70
2022-08-11T05:18:03.547Z,2.70
2022-08-11T05:19:03.532Z,2.50
2022-08-11T05:20:58.801Z,2.50
2022-08-11T05:21:57.786Z,2.80
2022-08-11T05:23:51.881Z,2.60
2022-08-11T05:24:51.864Z,2.60
2022-08-11T05:26:48.875Z,3.00
2022-08-11T05:27:45.962Z,2.60
2022-08-11T05:29:40.160Z,2.70
2022-08-11T05:30:40.154Z,3.10
2022-08-11T05:32:35.393Z,3.20
2022-08-11T05:33:35.360Z,3.90
2022-08-11T05:36:01.969Z,3.10
2022-08-11T05:36:29.646Z,3.20
2022-08-11T05:38:23.782Z,3.30
2022-08-11T05:39:36.122Z,3.10
2022-08-11T05:41:17.880Z,3.70
2022-08-11T05:42:29.517Z,3.20
2022-08-11T05:44:20.394Z,3.00
2022-08-11T05:45:15.663Z,2.70
2022-08-11T05:47:06.235Z,3.80
2022-08-11T05:48:06.217Z,3.20
2022-08-11T05:50:00.814Z,3.10
2022-08-11T05:51:00.533Z,3.10
2022-08-11T05:52:55.505Z,3.40
2022-08-11T05:53:54.629Z,3.40
2022-08-11T05:55:58.368Z,3.50
2022-08-11T05:56:48.734Z,3.60
2022-08-11T05:58:43.163Z,3.40
2022-08-11T05:59:42.470Z,3.80
2022-08-11T06:01:36.601Z,3.30
2022-08-11T06:02:36.685Z,3.30
2022-08-11T06:04:30.640Z,3.40
2022-08-11T06:05:30.627Z,3.00
2022-08-11T06:07:25.032Z,2.80
2022-08-11T06:08:24.920Z,3.20
2022-08-11T06:10:18.993Z,3.20
2022-08-11T06:11:18.987Z,3.50
2022-08-11T06:13:13.093Z,2.90
2022-08-11T06:14:13.085Z,3.40
2022-08-11T06:16:07.400Z,3.30
2022-08-11T06:17:07.378Z,2.90
2022-08-11T06:19:01.555Z,3.50
2022-08-11T06:20:04.222Z,2.90
2022-08-11T06:21:55.616Z,3.10
2022-08-11T06:22:55.608Z,3.20
2022-08-11T06:24:49.742Z,2.80
2022-08-11T06:25:49.728Z,2.90
2022-08-11T06:27:43.818Z,3.20
2022-08-11T06:28:43.804Z,2.80
2022-08-11T06:30:38.540Z,3.10
2022-08-11T06:31:38.528Z,3.50
2022-08-11T06:33:32.624Z,3.10
2022-08-11T06:34:32.608Z,2.80
2022-08-11T06:36:26.710Z,2.70
2022-08-11T06:37:26.705Z,3.40
2022-08-11T06:39:20.870Z,3.40
2022-08-11T06:40:20.778Z,3.00
2022-08-11T06:42:14.930Z,2.90
2022-08-11T06:43:14.907Z,3.10
2022-08-11T06:45:10.054Z,3.50
2022-08-11T06:46:10.059Z,3.10
2022-08-11T06:48:04.169Z,3.10
2022-08-11T06:49:04.153Z,3.00
2022-08-11T06:50:58.215Z,4.40
2022-08-11T06:52:00.619Z,3.60
2022-08-11T06:54:03.465Z,3.20
2022-08-11T06:54:52.305Z,2.70
2022-08-11T06:56:46.444Z,2.60
2022-08-11T06:57:46.439Z,2.80
2022-08-11T06:59:40.530Z,2.90
2022-08-11T07:00:40.514Z,2.60
2022-08-11T07:02:34.578Z,2.60
2022-08-11T07:03:34.344Z,2.50
2022-08-11T07:05:28.453Z,2.90
2022-08-11T07:06:28.452Z,3.20
2022-08-11T07:08:34.197Z,2.80
2022-08-11T07:09:22.714Z,2.70
2022-08-11T07:11:16.990Z,2.80
2022-08-11T07:12:16.983Z,2.70
2022-08-11T07:14:11.242Z,2.90
2022-08-11T07:15:11.230Z,2.50
2022-08-11T07:17:05.390Z,2.30
2022-08-11T07:18:05.381Z,2.60
2022-08-11T07:19:59.509Z,2.70
2022-08-11T07:21:02.185Z,3.00
2022-08-11T07:22:53.663Z,2.80
2022-08-11T07:23:53.646Z,3.10
2022-08-11T07:25:48.769Z,2.80
2022-08-11T07:26:48.760Z,3.00
2022-08-11T07:28:42.863Z,3.00
2022-08-11T07:29:42.852Z,2.90
2022-08-11T07:31:36.931Z,3.10
2022-08-11T07:32:37.076Z,3.30
2022-08-11T07:34:31.061Z,3.10
2022-08-11T07:35:31.051Z,2.80
2022-08-11T07:37:26.217Z,2.40
2022-08-11T07:38:26.206Z,2.80
2022-08-11T07:40:20.300Z,2.90
2022-08-11T07:41:20.298Z,2.80
2022-08-11T07:43:14.235Z,3.00
2022-08-11T07:44:14.225Z,3.10
2022-08-11T07:46:08.312Z,2.80
2022-08-11T07:47:08.316Z,2.90
2022-08-11T07:49:02.473Z,3.00
2022-08-11T07:50:02.474Z,3.00
2022-08-11T07:51:57.581Z,2.80
2022-08-11T07:52:57.580Z,2.70
2022-08-11T07:54:51.687Z,3.10
2022-08-11T07:55:53.604Z,3.00
2022-08-11T07:58:13.920Z,2.50
2022-08-11T07:58:52.438Z,2.60
2022-08-11T08:00:40.974Z,2.60
2022-08-11T08:01:41.049Z,2.70
2022-08-11T08:03:35.199Z,2.60
2022-08-11T08:04:35.191Z,2.70
2022-08-11T08:06:36.079Z,2.50
2022-08-11T08:07:29.318Z,2.50
2022-08-11T08:09:23.483Z,2.70
2022-08-11T08:10:23.473Z,2.70
2022-08-11T08:12:17.252Z,2.40
2022-08-11T08:13:17.251Z,2.50
2022-08-11T08:15:11.399Z,2.80
2022-08-11T08:16:11.387Z,3.10
2022-08-11T08:18:09.397Z,2.70
2022-08-11T08:19:05.529Z,2.60
2022-08-11T08:21:00.660Z,2.80
2022-08-11T08:22:01.105Z,2.90
2022-08-11T08:23:56.577Z,2.50
2022-08-11T08:24:54.778Z,2.80
2022-08-11T08:26:51.800Z,2.80
2022-08-11T08:27:48.928Z,2.80
2022-08-11T08:29:43.094Z,2.40
2022-08-11T08:30:43.084Z,2.20
2022-08-11T08:32:37.233Z,2.40
2022-08-11T08:33:37.012Z,2.60
2022-08-11T08:35:33.031Z,2.50
2022-08-11T08:36:31.104Z,2.30
2022-08-11T08:38:25.258Z,2.50
2022-08-11T08:39:25.304Z,2.20
2022-08-11T08:41:19.409Z,2.50
2022-08-11T08:42:19.405Z,2.50
2022-08-11T08:45:13.572Z,2.30
2022-08-11T08:47:08.674Z,2.80
2022-08-11T08:48:08.677Z,2.40
2022-08-11T08:50:02.787Z,2.20
2022-08-11T08:51:02.783Z,2.40
2022-08-11T08:52:56.933Z,2.80
2022-08-11T08:53:58.615Z,2.50
2022-08-11T08:55:51.068Z,2.00
2022-08-11T08:56:51.059Z,2.40
2022-08-11T08:58:45.199Z,2.70
2022-08-11T08:59:48.491Z,2.40
2022-08-11T09:01:39.375Z,2.30
2022-08-11T09:02:39.327Z,2.50
2022-08-11T09:04:34.452Z,2.50
2022-08-11T09:05:34.449Z,2.30
2022-08-11T09:07:32.620Z,2.20
2022-08-11T09:08:28.580Z,2.40
2022-08-11T09:10:22.655Z,2.30
2022-08-11T09:11:22.648Z,2.10
2022-08-11T09:13:16.736Z,2.00
2022-08-11T09:14:16.742Z,2.30
2022-08-11T09:16:11.887Z,2.30
2022-08-11T09:17:11.877Z,2.30
2022-08-11T09:19:06.072Z,2.40
2022-08-11T09:20:06.061Z,2.10
2022-08-11T09:22:00.182Z,1.80
2022-08-11T09:24:06.453Z,2.30
2022-08-11T09:24:54.335Z,1.90
2022-08-11T09:25:54.331Z,2.00
2022-08-11T09:27:50.353Z,2.20
2022-08-11T09:28:48.096Z,2.20
2022-08-11T09:30:41.864Z,2.00
2022-08-11T09:31:41.854Z,1.90
2022-08-11T09:33:36.075Z,2.20
2022-08-11T09:34:36.083Z,1.80
2022-08-11T09:36:30.195Z,2.00
2022-08-11T09:37:55.385Z,2.00
2022-08-11T09:39:25.581Z,1.80
2022-08-11T09:40:27.183Z,2.00
2022-08-11T09:42:23.653Z,1.90
2022-08-11T09:43:19.620Z,2.30
2022-08-11T09:45:13.434Z,2.00
2022-08-11T09:46:13.435Z,2.10
2022-08-11T09:48:08.538Z,1.90
2022-08-11T09:49:08.542Z,2.10
2022-08-11T09:51:02.649Z,2.10
2022-08-11T09:52:05.392Z,1.80
2022-08-11T09:54:03.748Z,1.50
2022-08-11T09:54:56.845Z,1.60
2022-08-11T09:56:51.023Z,1.90
2022-08-11T09:57:51.019Z,2.00
2022-08-11T09:59:45.163Z,1.90
2022-08-11T10:00:45.163Z,2.00
2022-08-11T10:02:39.350Z,1.90
2022-08-11T10:03:40.441Z,2.00
2022-08-11T10:05:33.682Z,2.10
2022-08-11T10:06:34.572Z,2.00
2022-08-11T10:08:28.837Z,1.90
2022-08-11T10:09:28.836Z,1.80
2022-08-11T10:11:23.002Z,1.70
2022-08-11T10:12:22.996Z,1.90
2022-08-11T10:14:32.825Z,1.70
2022-08-11T10:15:18.171Z,1.90
2022-08-11T10:17:13.583Z,1.70
2022-08-11T10:18:13.577Z,1.90
2022-08-11T10:20:07.761Z,1.80
2022-08-11T10:21:07.754Z,1.80
2022-08-11T10:23:02.881Z,1.90
2022-08-11T10:24:06.048Z,1.90
2022-08-11T10:25:57.351Z,1.70
2022-08-11T10:26:57.341Z,2.00
2022-08-11T10:29:12.003Z,1.80
2022-08-11T10:29:52.125Z,1.80
2022-08-11T10:31:57.913Z,1.80
2022-08-11T10:32:57.778Z,2.00
2022-08-11T10:34:39.778Z,1.50
2022-08-11T10:35:39.802Z,1.80
2022-08-11T10:38:08.817Z,1.90
2022-08-11T10:38:33.952Z,1.90
2022-08-11T10:40:28.516Z,1.90
2022-08-11T10:41:28.316Z,1.70
2022-08-11T10:44:03.059Z,2.00
2022-08-11T10:44:23.500Z,2.20
2022-08-11T10:46:18.622Z,2.00
2022-08-11T10:47:18.614Z,1.80
2022-08-11T10:49:12.761Z,1.90
2022-08-11T10:50:12.784Z,1.60
2022-08-11T10:52:07.176Z,1.80
2022-08-11T10:53:07.129Z,1.60
2022-08-11T10:55:01.510Z,1.70
2022-08-11T10:56:01.562Z,1.90
2022-08-11T10:58:05.116Z,1.60
2022-08-11T10:58:57.532Z,1.70
2022-08-11T11:00:49.780Z,1.70
2022-08-11T11:01:49.752Z,1.70
2022-08-11T11:03:44.075Z,1.80
2022-08-11T11:04:45.574Z,1.80
2022-08-11T11:06:38.271Z,1.70
2022-08-11T11:07:41.499Z,1.40
2022-08-11T11:09:32.665Z,1.70
2022-08-11T11:10:32.478Z,1.60
2022-08-11T11:12:27.590Z,1.90
2022-08-11T11:13:27.592Z,1.80
2022-08-11T11:15:21.918Z,1.70
2022-08-11T11:16:21.919Z,1.80
2022-08-11T11:18:16.044Z,1.60
2022-08-11T11:19:16.053Z,1.80
2022-08-11T11:21:10.192Z,1.90
2022-08-11T11:22:10.190Z,1.70
2022-08-11T11:24:04.314Z,1.80
2022-08-11T11:25:04.323Z,1.60
2022-08-11T11:26:58.694Z,1.80
2022-08-11T11:27:58.685Z,1.60
2022-08-11T11:29:52.882Z,1.70
2022-08-11T11:30:52.893Z,1.80
2022-08-11T11:32:49.661Z,1.80
2022-08-11T11:34:06.904Z,1.70
2022-08-11T11:35:41.161Z,2.20
2022-08-11T11:36:41.160Z,2.00
2022-08-11T11:38:36.363Z,1.60
2022-08-11T11:39:36.435Z,1.90
2022-08-11T11:41:30.567Z,1.60
2022-08-11T11:42:30.564Z,1.90
2022-08-11T11:44:24.903Z,1.90
2022-08-11T11:45:24.902Z,2.00
2022-08-11T11:47:19.147Z,2.10
2022-08-11T11:48:19.120Z,1.90
2022-08-11T11:50:13.292Z,2.00
2022-08-11T11:51:13.236Z,1.90
2022-08-11T11:53:07.343Z,1.80
2022-08-11T11:54:07.348Z,1.80
2022-08-11T11:56:01.600Z,2.00
2022-08-11T11:57:01.593Z,2.10
2022-08-11T11:58:55.890Z,2.10
2022-08-11T11:59:55.896Z,2.20
2022-08-11T12:01:50.179Z,1.90
2022-08-11T12:02:50.133Z,2.30
2022-08-11T12:04:44.224Z,1.90
2022-08-11T12:05:44.218Z,1.90
2022-08-11T12:07:38.157Z,2.20
2022-08-11T12:08:38.072Z,2.20
2022-08-11T12:10:32.133Z,1.90
2022-08-11T12:11:32.115Z,1.90
2022-08-11T12:13:27.242Z,1.80
2022-08-11T12:14:27.238Z,2.00
2022-08-11T12:16:33.231Z,2.20
2022-08-11T12:17:21.345Z,2.20
2022-08-11T12:19:15.466Z,2.20
2022-08-11T12:20:31.863Z,2.00
2022-08-11T12:22:09.602Z,2.20
2022-08-11T12:23:09.598Z,2.00
2022-08-11T12:25:03.888Z,2.40
2022-08-11T12:26:25.892Z,1.90
2022-08-11T12:27:58.143Z,1.90
2022-08-11T12:28:58.135Z,1.80
2022-08-11T12:30:54.181Z,2.00
2022-08-11T12:31:52.954Z,1.80
2022-08-11T12:33:47.094Z,2.00
2022-08-11T12:34:47.076Z,2.30
2022-08-11T12:36:41.217Z,1.80
2022-08-11T12:37:41.582Z,1.90
2022-08-11T12:40:16.527Z,2.10
2022-08-11T12:40:42.518Z,2.10
2022-08-11T12:42:29.436Z,1.90
2022-08-11T12:43:38.084Z,2.20
2022-08-11T12:45:23.616Z,1.80
2022-08-11T12:46:23.618Z,2.10
2022-08-11T12:49:00.832Z,1.90
2022-08-11T12:49:17.767Z,2.10
2022-08-11T12:51:12.111Z,1.90
2022-08-11T12:52:15.546Z,1.90
2022-08-11T12:54:06.253Z,1.90
2022-08-11T12:55:09.748Z,2.30
2022-08-11T12:57:00.399Z,2.00
2022-08-11T12:58:00.387Z,2.00
2022-08-11T12:59:56.542Z,2.00
2022-08-11T13:00:56.603Z,2.00
2022-08-11T13:02:50.716Z,2.00
2022-08-11T13:03:52.329Z,2.20
2022-08-11T13:05:45.413Z,2.00
2022-08-11T13:06:44.844Z,2.10
2022-08-11T13:08:38.976Z,1.90
2022-08-11T13:09:38.954Z,2.20
2022-08-11T13:11:54.499Z,2.00
2022-08-11T13:12:33.172Z,2.10
2022-08-11T13:14:28.357Z,2.40
2022-08-11T13:15:28.353Z,2.40
2022-08-11T13:17:43.733Z,1.90
2022-08-11T13:18:23.450Z,2.00
2022-08-11T13:20:17.777Z,1.80
2022-08-11T13:21:20.838Z,1.80
2022-08-11T13:23:12.007Z,2.10
2022-08-11T13:24:11.998Z,1.70
2022-08-11T13:26:06.150Z,2.00
2022-08-11T13:27:06.150Z,2.20
2022-08-11T13:29:00.417Z,2.20
2022-08-11T13:30:00.407Z,2.00
2022-08-11T13:31:54.582Z,2.00
2022-08-11T13:32:54.570Z,2.00
2022-08-11T13:34:48.719Z,2.10
2022-08-11T13:35:48.733Z,1.90
2022-08-11T13:38:19.756Z,2.10
2022-08-11T13:38:44.490Z,2.20
2022-08-11T13:40:54.689Z,2.10
2022-08-11T13:41:37.020Z,2.10
2022-08-11T13:43:31.125Z,2.30
2022-08-11T13:44:31.114Z,1.90
2022-08-11T13:46:26.282Z,2.30
2022-08-11T13:47:26.280Z,2.10
2022-08-11T13:49:20.485Z,2.00
2022-08-11T13:50:20.475Z,2.00
2022-08-11T13:52:14.579Z,2.00
2022-08-11T13:53:14.567Z,2.00
2022-08-11T13:55:08.661Z,2.00
2022-08-11T13:56:08.667Z,2.00
2022-08-11T13:58:08.502Z,2.30
2022-08-11T13:59:02.770Z,2.10
2022-08-11T14:00:56.932Z,2.00
2022-08-11T14:02:21.346Z,2.00
2022-08-11T14:04:29.888Z,2.20
2022-08-11T14:04:51.075Z,2.30
2022-08-11T14:06:45.185Z,2.20
2022-08-11T14:07:45.186Z,2.10
2022-08-11T14:09:39.303Z,2.10
2022-08-11T14:10:39.294Z,2.00
2022-08-11T14:12:33.473Z,2.20
2022-08-11T14:13:42.281Z,2.40
2022-08-11T14:15:27.687Z,2.30
2022-08-11T14:16:27.677Z,2.10
2022-08-11T14:18:21.914Z,2.70
2022-08-11T14:19:21.903Z,2.50
2022-08-11T14:21:16.011Z,2.20
2022-08-11T14:22:16.012Z,1.90
2022-08-11T14:24:10.157Z,2.10
2022-08-11T14:25:10.150Z,2.20
2022-08-11T14:27:05.256Z,2.20
2022-08-11T14:28:31.164Z,2.20
2022-08-11T14:29:59.385Z,1.70
2022-08-11T14:31:01.795Z,1.90
2022-08-11T14:32:56.044Z,2.00
2022-08-11T14:33:59.586Z,1.90
2022-08-11T14:35:48.800Z,2.30
2022-08-11T14:36:48.646Z,2.20
2022-08-11T14:38:42.785Z,2.10
2022-08-11T14:39:42.806Z,2.30
2022-08-11T14:41:36.899Z,2.50
2022-08-11T14:42:36.897Z,2.20
2022-08-11T14:44:31.273Z,2.00
2022-08-11T14:45:58.368Z,1.80
2022-08-11T14:47:25.866Z,1.90
2022-08-11T14:48:25.566Z,2.30
2022-08-11T14:50:19.731Z,2.20
2022-08-11T14:51:19.707Z,2.10
2022-08-11T14:53:18.825Z,2.20
2022-08-11T14:54:13.822Z,2.10
2022-08-11T14:56:07.922Z,1.70
2022-08-11T14:57:07.924Z,1.70
2022-08-11T14:59:02.152Z,2.10
2022-08-11T15:00:02.235Z,2.00
2022-08-11T15:01:56.139Z,1.90
2022-08-11T15:02:56.139Z,1.80
2022-08-11T15:04:50.292Z,2.10
2022-08-11T15:05:57.215Z,1.90
2022-08-11T15:07:44.404Z,2.20
2022-08-11T15:08:44.393Z,2.10
2022-08-11T15:10:38.508Z,2.20
2022-08-11T15:11:38.510Z,2.00
2022-08-11T15:13:32.663Z,2.30
2022-08-11T15:14:32.706Z,2.20
2022-08-11T15:16:26.790Z,2.10
2022-08-11T15:17:38.421Z,2.00
2022-08-11T15:19:21.979Z,2.00
2022-08-11T15:20:21.957Z,1.90
2022-08-11T15:22:16.152Z,1.90
2022-08-11T15:23:16.145Z,1.90
2022-08-11T15:25:10.236Z,2.00
2022-08-11T15:26:10.233Z,2.00
2022-08-11T15:28:04.391Z,2.10
2022-08-11T15:29:04.384Z,2.10
2022-08-11T15:30:58.370Z,2.20
2022-08-11T15:31:58.369Z,1.90
2022-08-11T15:33:53.508Z,2.00
2022-08-11T15:34:53.496Z,2.30
2022-08-11T15:36:47.637Z,2.20
2022-08-11T15:37:47.645Z,2.10
2022-08-11T15:39:41.497Z,2.00
2022-08-11T15:40:41.483Z,2.10
2022-08-11T15:42:35.629Z,2.20
2022-08-11T15:43:35.627Z,2.10
2022-08-11T15:45:29.970Z,1.90
2022-08-11T15:46:29.964Z,1.70
2022-08-11T15:48:24.231Z,2.50
2022-08-11T15:49:24.224Z,2.30
2022-08-11T15:51:18.316Z,1.90
2022-08-11T15:52:18.319Z,1.90
2022-08-11T15:54:12.430Z,2.00
2022-08-11T15:55:12.416Z,2.00
2022-08-11T15:57:06.567Z,2.20
2022-08-11T15:58:06.564Z,2.10
2022-08-11T16:00:00.755Z,2.30
2022-08-11T16:01:04.114Z,2.10
2022-08-11T16:02:55.892Z,2.00
2022-08-11T16:04:07.189Z,2.00
2022-08-11T16:05:53.120Z,2.10
2022-08-11T16:06:50.006Z,2.00
2022-08-11T16:08:44.105Z,2.20
2022-08-11T16:09:46.921Z,2.20
2022-08-11T16:11:38.204Z,2.30
2022-08-11T16:12:38.199Z,2.20
2022-08-11T16:14:32.382Z,2.10
2022-08-11T16:15:32.373Z,2.10
2022-08-11T16:17:26.509Z,1.90
2022-08-11T16:18:26.504Z,2.00
2022-08-11T16:20:20.656Z,2.00
2022-08-11T16:21:33.585Z,1.90
2022-08-11T16:23:15.718Z,2.00
2022-08-11T16:27:04.889Z,2.00
2022-08-11T16:27:07.949Z,2.60
2022-08-11T16:27:14.018Z,2.30
2022-08-11T16:29:04.006Z,2.10
2022-08-11T16:30:04.000Z,2.10
2022-08-11T16:31:58.122Z,1.90
2022-08-11T16:32:58.118Z,2.10
2022-08-11T16:34:52.230Z,1.90
2022-08-11T16:35:52.219Z,1.90
2022-08-11T16:37:46.368Z,2.30
2022-08-11T16:38:46.367Z,2.10
2022-08-11T16:40:40.657Z,2.20
2022-08-11T16:41:40.641Z,2.20
2022-08-11T16:43:35.846Z,2.20
2022-08-11T16:44:37.643Z,2.50
2022-08-11T16:46:29.963Z,2.30
2022-08-11T16:48:03.480Z,2.10
2022-08-11T16:49:24.178Z,2.10
2022-08-11T16:50:24.175Z,2.40
2022-08-11T16:52:18.330Z,2.00
2022-08-11T16:53:18.333Z,1.80
2022-08-11T16:55:12.541Z,2.10
2022-08-11T16:56:12.535Z,2.20
2022-08-11T16:58:06.682Z,2.20
2022-08-11T16:59:06.667Z,2.20
2022-08-11T17:01:01.910Z,2.00
2022-08-11T17:02:01.788Z,2.20
2022-08-11T17:03:56.014Z,1.90
2022-08-11T17:04:56.001Z,2.10
2022-08-11T17:06:50.588Z,2.00
2022-08-11T17:07:50.211Z,2.00
2022-08-11T17:09:45.664Z,2.10
2022-08-11T17:10:53.672Z,2.00
2022-08-11T17:12:39.712Z,2.40
2022-08-11T17:13:39.718Z,2.50
2022-08-11T17:15:34.939Z,1.90
2022-08-11T17:16:34.927Z,1.70
2022-08-11T17:18:30.117Z,2.10
2022-08-11T17:20:40.683Z,2.00
2022-08-11T17:21:24.387Z,1.80
2022-08-11T17:22:24.378Z,1.90
2022-08-11T17:24:18.554Z,2.10
2022-08-11T17:25:18.544Z,2.20
2022-08-11T17:27:12.300Z,2.10
2022-08-11T17:28:12.298Z,2.10
2022-08-11T17:30:07.448Z,2.10
2022-08-11T17:31:19.993Z,2.20
2022-08-11T17:33:01.858Z,1.80
2022-08-11T17:34:01.751Z,2.20
2022-08-11T17:35:55.927Z,2.10
2022-08-11T17:36:55.900Z,2.20
2022-08-11T17:38:50.346Z,2.30
2022-08-11T17:39:50.388Z,2.30
2022-08-11T17:41:44.488Z,2.20
2022-08-11T17:42:44.486Z,2.30
2022-08-11T17:44:38.582Z,2.10
2022-08-11T17:45:38.574Z,2.00
2022-08-11T17:47:32.766Z,2.60
2022-08-11T17:48:32.723Z,2.10
2022-08-11T17:50:27.913Z,2.10
2022-08-11T17:51:27.857Z,2.00
2022-08-11T17:53:21.986Z,2.20
2022-08-11T17:54:24.546Z,1.90
2022-08-11T17:56:16.266Z,1.90
2022-08-11T17:57:20.442Z,2.00
2022-08-11T17:59:10.383Z,1.90
2022-08-11T18:00:10.349Z,2.20
2022-08-11T18:02:05.342Z,2.00
2022-08-11T18:03:04.475Z,2.50
2022-08-11T18:04:58.662Z,1.90
2022-08-11T18:05:58.646Z,2.10
2022-08-11T18:07:52.848Z,2.50
2022-08-11T18:08:52.837Z,2.20
2022-08-11T18:10:47.143Z,2.10
2022-08-11T18:12:11.206Z,1.90
2022-08-11T18:13:41.215Z,2.30
2022-08-11T18:14:41.213Z,2.20
2022-08-11T18:16:36.378Z,2.20
2022-08-11T18:17:36.372Z,2.00
2022-08-11T18:19:31.529Z,2.30
2022-08-11T18:20:31.525Z,2.00
2022-08-11T18:22:25.700Z,2.20
2022-08-11T18:23:46.163Z,2.00
2022-08-11T18:25:20.090Z,2.10
2022-08-11T18:26:20.073Z,1.90
2022-08-11T18:28:14.221Z,1.90
2022-08-11T18:29:14.223Z,2.10
2022-08-11T18:31:12.750Z,2.20
2022-08-11T18:32:08.039Z,2.50
2022-08-11T18:34:09.248Z,2.10
2022-08-11T18:35:02.357Z,2.20
2022-08-11T18:36:56.612Z,2.10
2022-08-11T18:37:56.616Z,2.10
2022-08-11T18:39:54.670Z,2.10
2022-08-11T18:40:51.987Z,2.20
2022-08-11T18:42:46.176Z,2.00
2022-08-11T18:43:46.181Z,2.50
2022-08-11T18:45:45.559Z,2.20
2022-08-11T18:46:40.384Z,2.40
2022-08-11T18:48:37.092Z,2.10
2022-08-11T18:50:02.075Z,2.20
2022-08-11T18:51:30.336Z,2.40
2022-08-11T18:52:28.846Z,2.30
2022-08-11T18:54:23.067Z,2.20
2022-08-11T18:55:23.055Z,2.40
2022-08-11T18:57:17.331Z,2.10
2022-08-11T18:58:17.312Z,2.20
2022-08-11T19:00:11.518Z,2.10
2022-08-11T19:01:11.568Z,2.00
2022-08-11T19:03:05.939Z,2.30
2022-08-11T19:04:11.959Z,2.20
2022-08-11T19:06:36.669Z,2.50
2022-08-11T19:07:01.232Z,2.20
2022-08-11T19:08:55.731Z,2.40
2022-08-11T19:09:55.724Z,1.90
2022-08-11T19:11:49.911Z,2.30
2022-08-11T19:12:49.900Z,2.20
2022-08-11T19:14:44.081Z,2.30
2022-08-11T19:15:44.062Z,2.20
2022-08-11T19:17:43.878Z,2.30
2022-08-11T19:18:38.289Z,2.40
2022-08-11T19:20:32.617Z,2.20
2022-08-11T19:21:32.604Z,1.90